createdAt,value
2018-10-18T00:00:35.315Z,95.82
2018-10-18T00:03:04.189Z,95.89
2018-10-18T00:05:33.550Z,96.02
2018-10-18T00:08:03.008Z,95.54
2018-10-18T00:10:31.860Z,95.66
2018-10-18T00:13:00.732Z,95.83
2018-10-18T00:15:29.994Z,95.57
2018-10-18T00:17:59.159Z,95.44
2018-10-18T00:20:27.998Z,95.39
2018-10-18T00:22:56.811Z,95.26
2018-10-18T00:25:26.548Z,95.06
2018-10-18T00:27:55.301Z,94.91
2018-10-18T00:30:24.358Z,94.65
2018-10-18T00:32:53.198Z,94.80
2018-10-18T00:35:22.066Z,94.67
2018-10-18T00:37:51.277Z,94.66
2018-10-18T00:40:20.420Z,94.52
2018-10-18T00:42:49.492Z,94.33
2018-10-18T00:45:18.662Z,94.25
2018-10-18T00:47:47.878Z,94.44
2018-10-18T00:50:16.814Z,94.19
2018-10-18T00:52:45.640Z,94.13
2018-10-18T00:55:14.604Z,93.88
2018-10-18T00:57:43.634Z,93.68
2018-10-18T01:00:13.074Z,93.49
2018-10-18T01:02:41.987Z,93.77
2018-10-18T01:05:11.419Z,93.48
2018-10-18T01:07:40.980Z,93.31
2018-10-18T01:10:09.819Z,93.07
2018-10-18T01:12:38.642Z,92.91
2018-10-18T01:15:09.801Z,92.61
2018-10-18T01:17:38.584Z,92.68
2018-10-18T01:20:08.065Z,92.49
2018-10-18T01:22:36.778Z,92.18
2018-10-18T01:25:06.196Z,92.82
2018-10-18T01:27:35.653Z,92.06
2018-10-18T01:30:04.932Z,91.59
2018-10-18T01:32:34.542Z,92.05
2018-10-18T01:35:03.415Z,91.81
2018-10-18T01:37:35.320Z,91.89
2018-10-18T01:40:04.814Z,91.69
2018-10-18T01:42:33.915Z,91.61
2018-10-18T01:45:03.241Z,91.43
2018-10-18T01:47:32.359Z,91.75
2018-10-18T01:50:01.427Z,91.73
2018-10-18T01:52:30.208Z,91.60
2018-10-18T01:54:58.997Z,91.70
2018-10-18T01:57:28.840Z,91.60
2018-10-18T01:59:57.542Z,91.28
2018-10-18T02:02:26.634Z,91.42
2018-10-18T02:04:55.240Z,91.47
2018-10-18T02:07:24.081Z,91.30
2018-10-18T02:09:52.817Z,91.27
2018-10-18T02:12:21.724Z,91.11
2018-10-18T02:14:50.732Z,91.41
2018-10-18T02:20:00.487Z,91.27
2018-10-18T02:22:29.199Z,91.24
2018-10-18T02:24:57.965Z,91.02
2018-10-18T02:27:26.942Z,91.74
2018-10-18T02:29:55.678Z,91.46
2018-10-18T02:32:24.715Z,91.52
2018-10-18T02:34:53.691Z,91.56
2018-10-18T02:37:22.406Z,91.72
2018-10-18T02:39:51.128Z,91.37
2018-10-18T02:42:20.090Z,91.85
2018-10-18T02:44:48.999Z,91.86
2018-10-18T02:47:18.085Z,91.98
2018-10-18T02:49:47.203Z,91.91
2018-10-18T02:52:16.120Z,92.07
2018-10-18T02:54:45.292Z,92.12
2018-10-18T02:57:13.950Z,92.26
2018-10-18T02:59:42.538Z,91.82
2018-10-18T03:02:11.248Z,91.92
2018-10-18T03:04:41.030Z,92.09
2018-10-18T03:07:10.061Z,92.07
2018-10-18T03:09:39.178Z,92.55
2018-10-18T03:12:07.978Z,92.40
2018-10-18T03:14:37.803Z,92.35
2018-10-18T03:17:07.513Z,92.77
2018-10-18T03:19:37.143Z,92.71
2018-10-18T03:22:07.716Z,92.89
2018-10-18T03:24:36.532Z,92.70
2018-10-18T03:27:05.480Z,92.73
2018-10-18T03:29:34.317Z,92.37
2018-10-18T03:32:03.426Z,92.67
2018-10-18T03:34:32.063Z,92.30
2018-10-18T03:37:00.819Z,92.26
2018-10-18T03:39:30.020Z,92.49
2018-10-18T03:41:59.120Z,92.31
2018-10-18T03:44:27.826Z,92.46
2018-10-18T03:46:56.479Z,92.15
2018-10-18T03:49:25.247Z,92.25
2018-10-18T03:51:53.960Z,92.38
2018-10-18T03:54:22.817Z,92.34
2018-10-18T03:56:52.452Z,92.12
2018-10-18T03:59:21.337Z,91.98
2018-10-18T04:01:50.280Z,92.04
2018-10-18T04:04:19.146Z,91.80
2018-10-18T04:06:47.725Z,91.80
2018-10-18T04:09:16.893Z,91.64
2018-10-18T04:11:45.593Z,91.73
2018-10-18T04:14:14.373Z,91.52
2018-10-18T04:16:43.123Z,91.26
2018-10-18T04:19:12.049Z,91.09
2018-10-18T04:21:40.912Z,91.34
2018-10-18T04:24:10.087Z,91.38
2018-10-18T04:26:39.476Z,91.34
2018-10-18T04:29:08.134Z,91.38
2018-10-18T04:31:36.926Z,91.44
2018-10-18T04:34:05.951Z,90.96
2018-10-18T04:36:35.676Z,91.13
2018-10-18T04:39:08.707Z,91.02
2018-10-18T04:41:37.428Z,91.17
2018-10-18T04:44:07.331Z,91.35
2018-10-18T04:46:36.093Z,91.03
2018-10-18T04:49:04.894Z,90.96
2018-10-18T04:51:33.672Z,90.59
2018-10-18T04:54:02.356Z,90.93
2018-10-18T04:56:31.557Z,90.60
2018-10-18T04:59:00.584Z,90.18
2018-10-18T05:01:29.329Z,90.06
2018-10-18T05:03:58.010Z,90.34
2018-10-18T05:06:26.680Z,90.38
2018-10-18T05:08:55.980Z,90.70
2018-10-18T05:11:25.056Z,90.62
2018-10-18T05:13:53.779Z,90.84
2018-10-18T05:16:22.504Z,91.04
2018-10-18T05:18:51.697Z,91.14
2018-10-18T05:21:20.453Z,91.14
2018-10-18T05:23:49.238Z,91.48
2018-10-18T05:26:17.996Z,91.00
2018-10-18T05:28:46.770Z,91.46
2018-10-18T05:31:15.945Z,91.31
2018-10-18T05:33:45.066Z,92.17
2018-10-18T05:36:14.040Z,91.73
2018-10-18T05:38:43.084Z,91.94
2018-10-18T05:41:11.938Z,92.40
2018-10-18T05:43:40.893Z,92.13
2018-10-18T05:46:10.348Z,91.96
2018-10-18T05:48:40.013Z,92.12
2018-10-18T05:51:09.062Z,92.36
2018-10-18T05:53:37.917Z,92.60
2018-10-18T05:56:06.680Z,92.70
2018-10-18T05:58:37.251Z,92.23
2018-10-18T06:01:06.617Z,92.65
2018-10-18T06:03:35.406Z,93.26
2018-10-18T06:06:05.220Z,92.58
2018-10-18T06:08:35.158Z,93.14
2018-10-18T06:11:22.743Z,93.31
2018-10-18T06:13:51.625Z,92.99
2018-10-18T06:16:21.573Z,93.37
2018-10-18T06:18:51.408Z,93.48
2018-10-18T06:21:20.207Z,93.09
2018-10-18T06:23:48.976Z,93.38
2018-10-18T06:26:18.175Z,93.61
2018-10-18T06:28:47.029Z,93.67
2018-10-18T06:31:16.187Z,93.76
2018-10-18T06:33:44.933Z,94.03
2018-10-18T06:36:14.728Z,94.18
2018-10-18T06:38:43.633Z,93.70
2018-10-18T06:41:12.446Z,94.18
2018-10-18T06:43:42.142Z,94.02
2018-10-18T06:46:13.494Z,93.79
2018-10-18T06:48:42.816Z,94.25
2018-10-18T06:51:12.219Z,94.22
2018-10-18T06:53:42.811Z,94.23
2018-10-18T06:56:11.700Z,94.66
2018-10-18T06:58:40.852Z,94.38
2018-10-18T07:01:09.613Z,94.60
2018-10-18T07:03:38.368Z,94.14
2018-10-18T07:06:07.419Z,93.82
2018-10-18T07:08:36.142Z,93.53
2018-10-18T07:11:05.004Z,93.76
2018-10-18T07:13:33.747Z,93.28
2018-10-18T07:16:06.885Z,93.00
2018-10-18T07:18:41.927Z,92.23
2018-10-18T07:21:11.065Z,92.86
2018-10-18T07:23:40.122Z,91.85
2018-10-18T07:26:09.441Z,92.09
2018-10-18T07:28:40.248Z,92.03
2018-10-18T07:31:09.074Z,92.19
2018-10-18T07:33:39.078Z,92.08
2018-10-18T07:36:09.313Z,92.54
2018-10-18T07:38:38.927Z,92.43
2018-10-18T07:41:13.054Z,92.54
2018-10-18T07:43:43.288Z,92.45
2018-10-18T07:46:13.118Z,92.44
2018-10-18T07:48:42.178Z,92.47
2018-10-18T07:51:11.331Z,92.06
2018-10-18T07:53:40.393Z,92.39
2018-10-18T07:56:09.950Z,92.30
2018-10-18T07:58:39.397Z,92.17
2018-10-18T08:01:24.743Z,92.50
2018-10-18T08:03:54.062Z,92.59
2018-10-18T08:06:24.376Z,92.49
2018-10-18T08:08:53.584Z,92.20
2018-10-18T08:11:22.721Z,92.31
2018-10-18T08:13:51.765Z,92.53
2018-10-18T08:16:21.908Z,92.69
2018-10-18T08:18:50.913Z,92.21
2018-10-18T08:21:20.921Z,92.31
2018-10-18T08:23:49.910Z,92.17
2018-10-18T08:26:19.039Z,91.87
2018-10-18T08:28:47.759Z,92.32
2018-10-18T08:31:24.256Z,91.39
2018-10-18T08:33:53.037Z,91.53
2018-10-18T08:36:21.939Z,91.28
2018-10-18T08:38:50.723Z,90.80
2018-10-18T08:41:20.759Z,91.31
2018-10-18T08:43:49.811Z,91.52
2018-10-18T08:46:18.736Z,91.26
2018-10-18T08:48:48.343Z,91.17
2018-10-18T08:51:20.005Z,91.20
2018-10-18T08:53:49.115Z,91.05
2018-10-18T08:56:19.343Z,90.54
2018-10-18T08:58:48.658Z,90.03
2018-10-18T09:01:18.912Z,87.65
2018-10-18T09:03:47.900Z,88.52
2018-10-18T09:06:17.303Z,88.83
2018-10-18T09:08:46.373Z,87.71
2018-10-18T09:11:15.878Z,86.99
2018-10-18T09:13:44.752Z,84.27
2018-10-18T09:16:13.818Z,80.78
2018-10-18T09:18:43.000Z,77.25
2018-10-18T09:21:12.968Z,78.07
2018-10-18T09:23:41.944Z,77.61
2018-10-18T09:26:17.171Z,77.90
2018-10-18T09:28:46.039Z,77.61
2018-10-18T09:31:15.247Z,75.69
2018-10-18T09:33:45.157Z,73.84
2018-10-18T09:36:14.481Z,74.34
2018-10-18T09:38:43.474Z,74.73
2018-10-18T09:41:12.336Z,72.68
2018-10-18T09:43:42.094Z,73.86
2018-10-18T09:46:12.844Z,74.02
2018-10-18T09:48:42.844Z,73.47
2018-10-18T09:51:13.436Z,73.72
2018-10-18T09:53:42.861Z,74.22
2018-10-18T09:56:12.252Z,73.03
2018-10-18T09:58:41.055Z,73.81
2018-10-18T10:01:16.094Z,73.78
2018-10-18T10:03:45.599Z,73.37
2018-10-18T10:06:14.583Z,74.08
2018-10-18T10:08:47.740Z,74.10
2018-10-18T10:11:18.725Z,72.73
2018-10-18T10:13:52.915Z,73.44
2018-10-18T10:16:22.080Z,75.28
2018-10-18T10:18:51.752Z,76.75
2018-10-18T10:21:21.951Z,78.18
2018-10-18T10:23:51.672Z,79.91
2018-10-18T10:26:20.869Z,81.54
2018-10-18T10:28:49.725Z,82.25
2018-10-18T10:31:19.558Z,83.42
2018-10-18T10:33:48.324Z,84.03
2018-10-18T10:36:19.928Z,85.17
2018-10-18T10:38:50.031Z,85.48
2018-10-18T10:41:20.958Z,86.21
2018-10-18T10:43:49.751Z,86.40
2018-10-18T10:46:18.711Z,86.85
2018-10-18T10:48:48.223Z,87.20
2018-10-18T10:51:18.161Z,87.59
2018-10-18T10:53:48.161Z,87.51
2018-10-18T10:56:17.347Z,86.67
2018-10-18T10:58:46.815Z,86.00
2018-10-18T11:01:19.101Z,85.49
2018-10-18T11:03:50.215Z,85.35
2018-10-18T11:06:19.654Z,86.26
2018-10-18T11:08:48.581Z,86.78
2018-10-18T11:11:21.534Z,86.96
2018-10-18T11:13:50.576Z,86.96
2018-10-18T11:16:20.350Z,86.67
2018-10-18T11:18:49.165Z,85.92
2018-10-18T11:21:20.237Z,84.21
2018-10-18T11:23:49.286Z,83.79
2018-10-18T11:26:18.707Z,81.56
2018-10-18T11:28:50.935Z,78.81
2018-10-18T11:31:40.927Z,80.44
2018-10-18T11:34:11.568Z,79.55
2018-10-18T11:36:40.519Z,78.10
2018-10-18T11:39:13.074Z,78.74
2018-10-18T11:41:51.996Z,78.79
2018-10-18T11:44:25.724Z,79.02
2018-10-18T11:46:54.779Z,79.19
2018-10-18T11:49:25.298Z,78.10
2018-10-18T11:52:09.894Z,77.88
2018-10-18T11:54:41.406Z,77.54
2018-10-18T11:57:11.361Z,77.96
2018-10-18T11:59:40.465Z,78.89
2018-10-18T12:02:15.280Z,78.66
2018-10-18T12:04:53.222Z,77.28
2018-10-18T12:07:23.016Z,76.46
2018-10-18T12:09:55.334Z,76.68
2018-10-18T12:12:25.331Z,76.44
2018-10-18T12:14:54.195Z,75.98
2018-10-18T12:17:24.210Z,76.84
2018-10-18T12:19:53.087Z,76.70
2018-10-18T12:22:22.184Z,76.84
2018-10-18T12:24:52.900Z,76.96
2018-10-18T12:27:23.644Z,78.41
2018-10-18T12:29:53.622Z,79.62
2018-10-18T12:32:26.931Z,80.90
2018-10-18T12:34:57.331Z,81.84
2018-10-18T12:37:26.797Z,83.21
2018-10-18T12:39:57.347Z,83.14
2018-10-18T12:42:28.353Z,85.23
2018-10-18T12:44:58.834Z,84.97
2018-10-18T12:47:28.288Z,86.51
2018-10-18T12:49:59.050Z,87.02
2018-10-18T12:52:31.751Z,87.09
2018-10-18T12:55:00.564Z,87.38
2018-10-18T12:57:29.583Z,88.65
2018-10-18T12:59:58.747Z,88.28
2018-10-18T13:02:29.769Z,88.25
2018-10-18T13:04:59.435Z,88.63
2018-10-18T13:07:29.587Z,88.14
2018-10-18T13:09:59.793Z,88.54
2018-10-18T13:12:29.787Z,88.66
2018-10-18T13:14:59.296Z,88.93
2018-10-18T13:17:28.536Z,89.75
2018-10-18T13:19:59.183Z,90.62
2018-10-18T13:22:42.020Z,90.97
2018-10-18T13:25:12.583Z,91.08
2018-10-18T13:27:41.848Z,90.84
2018-10-18T13:30:12.506Z,90.89
2018-10-18T13:32:44.090Z,91.35
2018-10-18T13:35:14.464Z,91.29
2018-10-18T13:37:43.637Z,91.35
2018-10-18T13:40:12.581Z,91.00
2018-10-18T13:42:49.376Z,91.33
2018-10-18T13:45:18.947Z,91.49
2018-10-18T13:47:47.873Z,91.75
2018-10-18T13:50:17.085Z,91.69
2018-10-18T13:52:46.877Z,91.96
2018-10-18T13:55:15.723Z,91.74
2018-10-18T13:57:45.084Z,92.08
2018-10-18T14:00:20.731Z,92.55
2018-10-18T14:02:55.216Z,92.20
2018-10-18T14:05:26.079Z,91.98
2018-10-18T14:07:55.671Z,92.17
2018-10-18T14:10:24.516Z,91.94
2018-10-18T14:13:06.295Z,92.31
2018-10-18T14:15:35.192Z,92.22
2018-10-18T14:18:04.742Z,92.09
2018-10-18T14:20:33.551Z,91.85
2018-10-18T14:23:04.453Z,92.41
2018-10-18T14:25:34.035Z,91.94
2018-10-18T14:28:02.883Z,92.07
2018-10-18T14:30:31.792Z,91.76
2018-10-18T14:33:07.609Z,91.86
2018-10-18T14:35:37.383Z,92.08
2018-10-18T14:38:06.688Z,92.33
2018-10-18T14:40:35.460Z,92.32
2018-10-18T14:43:07.629Z,91.96
2018-10-18T14:45:36.640Z,92.17
2018-10-18T14:48:05.867Z,92.33
2018-10-18T14:50:35.091Z,92.10
2018-10-18T14:53:06.971Z,92.04
2018-10-18T14:55:36.040Z,92.23
2018-10-18T14:58:05.411Z,92.39
2018-10-18T15:00:34.098Z,92.36
2018-10-18T15:03:04.340Z,92.08
2018-10-18T15:05:33.419Z,92.23
2018-10-18T15:08:02.421Z,92.40
2018-10-18T15:10:31.838Z,92.18
2018-10-18T15:13:05.044Z,92.52
2018-10-18T15:15:33.798Z,92.36
2018-10-18T15:18:02.728Z,92.66
2018-10-18T15:20:31.880Z,92.73
2018-10-18T15:23:04.658Z,92.71
2018-10-18T15:25:34.133Z,92.84
2018-10-18T15:28:03.317Z,92.83
2018-10-18T15:30:32.510Z,92.97
2018-10-18T15:33:09.427Z,92.85
2018-10-18T15:35:38.192Z,92.55
2018-10-18T15:38:07.101Z,92.51
2018-10-18T15:40:35.946Z,92.87
2018-10-18T15:43:12.278Z,92.67
2018-10-18T15:45:41.100Z,92.66
2018-10-18T15:48:10.026Z,92.68
2018-10-18T15:50:39.051Z,92.85
2018-10-18T15:53:12.089Z,92.52
2018-10-18T15:55:41.364Z,92.34
2018-10-18T15:58:10.295Z,91.93
2018-10-18T16:00:39.065Z,91.73
2018-10-18T16:03:15.990Z,92.11
2018-10-18T16:05:44.718Z,92.16
2018-10-18T16:08:13.524Z,91.96
2018-10-18T16:10:42.372Z,92.11
2018-10-18T16:13:19.131Z,91.95
2018-10-18T16:15:48.285Z,91.79
2018-10-18T16:18:16.997Z,92.11
2018-10-18T16:20:46.100Z,92.28
2018-10-18T16:23:22.217Z,92.30
2018-10-18T16:25:51.068Z,92.49
2018-10-18T16:28:19.830Z,92.45
2018-10-18T16:30:48.862Z,92.33
2018-10-18T16:33:17.810Z,92.44
2018-10-18T16:35:46.485Z,92.43
2018-10-18T16:38:15.837Z,92.23
2018-10-18T16:40:44.956Z,92.43
2018-10-18T16:43:15.442Z,92.56
2018-10-18T16:45:45.217Z,92.55
2018-10-18T16:48:14.208Z,92.65
2018-10-18T16:50:43.099Z,92.50
2018-10-18T16:53:12.087Z,92.21
2018-10-18T16:55:40.980Z,92.60
2018-10-18T16:58:11.096Z,92.68
2018-10-18T17:00:40.104Z,92.63
2018-10-18T17:03:08.985Z,92.61
2018-10-18T17:05:38.109Z,92.88
2018-10-18T17:08:07.421Z,92.54
2018-10-18T17:10:36.224Z,92.72
2018-10-18T17:13:05.418Z,92.87
2018-10-18T17:15:39.356Z,92.99
2018-10-18T17:18:08.376Z,92.78
2018-10-18T17:20:38.023Z,92.81
2018-10-18T17:23:06.853Z,92.99
2018-10-18T17:25:38.242Z,92.91
2018-10-18T17:28:07.323Z,92.76
2018-10-18T17:30:36.597Z,93.07
2018-10-18T17:33:05.561Z,92.92
2018-10-18T17:36:12.429Z,92.70
2018-10-18T17:38:41.271Z,92.67
2018-10-18T17:41:11.568Z,92.39
2018-10-18T17:43:42.504Z,92.20
2018-10-18T17:46:11.594Z,92.07
2018-10-18T17:48:40.833Z,92.46
2018-10-18T17:51:09.888Z,92.26
2018-10-18T17:53:39.031Z,92.08
2018-10-18T17:56:11.306Z,91.94
2018-10-18T17:58:40.292Z,91.82
2018-10-18T18:01:10.748Z,91.79
2018-10-18T18:03:41.543Z,91.24
2018-10-18T18:06:11.827Z,91.59
2018-10-18T18:08:47.340Z,91.08
2018-10-18T18:11:18.143Z,91.03
2018-10-18T18:13:55.447Z,91.19
2018-10-18T18:16:34.562Z,90.80
2018-10-18T18:19:18.297Z,90.65
2018-10-18T18:24:50.098Z,90.61
2018-10-18T18:30:52.431Z,90.52
2018-10-18T18:33:24.056Z,90.94
2018-10-18T18:36:02.543Z,90.42
2018-10-18T18:38:31.868Z,90.22
2018-10-18T18:41:00.938Z,90.56
2018-10-18T18:43:29.875Z,90.29
2018-10-18T18:46:15.305Z,90.18
2018-10-18T18:48:44.571Z,90.45
2018-10-18T18:51:13.758Z,90.20
2018-10-18T18:53:42.645Z,90.30
2018-10-18T18:56:12.619Z,90.23
2018-10-18T18:58:41.753Z,90.32
2018-10-18T19:01:10.794Z,90.08
2018-10-18T19:03:39.812Z,89.94
2018-10-18T19:06:09.116Z,89.92
2018-10-18T19:08:38.091Z,90.02
2018-10-18T19:11:07.077Z,89.65
2018-10-18T19:13:36.271Z,89.78
2018-10-18T19:16:06.456Z,89.99
2018-10-18T19:18:35.516Z,90.10
2018-10-18T19:21:04.377Z,90.12
2018-10-18T19:23:33.394Z,90.31
2018-10-18T19:26:04.507Z,90.19
2018-10-18T19:28:33.949Z,90.35
2018-10-18T19:31:02.907Z,90.40
2018-10-18T19:33:31.999Z,90.75
2018-10-18T19:36:00.940Z,90.32
2018-10-18T19:38:29.941Z,90.61
2018-10-18T19:40:58.859Z,91.15
2018-10-18T19:43:28.222Z,90.95
2018-10-18T19:45:57.371Z,90.08
2018-10-18T19:48:26.270Z,90.59
2018-10-18T19:50:55.391Z,90.77
2018-10-18T19:53:24.367Z,90.41
2018-10-18T19:55:53.226Z,90.45
2018-10-18T19:58:22.367Z,90.65
2018-10-18T20:00:50.955Z,90.86
2018-10-18T20:03:19.851Z,90.21
2018-10-18T20:05:49.973Z,90.54
2018-10-18T20:08:18.960Z,90.81
2018-10-18T20:10:47.742Z,91.41
2018-10-18T20:13:16.551Z,91.11
2018-10-18T20:15:45.292Z,91.09
2018-10-18T20:18:14.304Z,91.36
2018-10-18T20:20:42.985Z,91.48
2018-10-18T20:23:11.831Z,91.83
2018-10-18T20:25:41.292Z,91.57
2018-10-18T20:28:10.116Z,91.95
2018-10-18T20:30:39.072Z,92.12
2018-10-18T20:33:08.015Z,92.27
2018-10-18T20:35:37.190Z,92.10
2018-10-18T20:38:06.134Z,92.54
2018-10-18T20:40:34.944Z,92.48
2018-10-18T20:43:03.685Z,92.44
2018-10-18T20:45:33.382Z,92.52
2018-10-18T20:48:02.337Z,92.42
2018-10-18T20:50:30.891Z,92.62
2018-10-18T20:52:59.811Z,92.71
2018-10-18T20:55:28.556Z,93.16
2018-10-18T20:57:57.379Z,92.70
2018-10-18T21:00:25.994Z,93.11
2018-10-18T21:02:54.856Z,93.23
2018-10-18T21:05:23.673Z,92.86
2018-10-18T21:07:52.344Z,93.11
2018-10-18T21:10:21.022Z,93.56
2018-10-18T21:12:49.729Z,93.28
2018-10-18T21:15:18.485Z,93.45
2018-10-18T21:17:47.119Z,93.25
2018-10-18T21:20:15.879Z,93.48
2018-10-18T21:22:44.568Z,93.75
2018-10-18T21:25:13.356Z,93.71
2018-10-18T21:27:42.071Z,93.97
2018-10-18T21:30:10.817Z,93.41
2018-10-18T21:32:39.596Z,93.77
2018-10-18T21:35:08.311Z,93.64
2018-10-18T21:37:37.006Z,93.44
2018-10-18T21:40:05.635Z,93.48
2018-10-18T21:42:34.363Z,94.04
2018-10-18T21:45:03.525Z,94.06
2018-10-18T21:47:32.391Z,94.17
2018-10-18T21:50:01.013Z,93.51
2018-10-18T21:52:29.671Z,94.24
2018-10-18T21:54:58.320Z,94.72
2018-10-18T21:57:28.376Z,94.29
2018-10-18T21:59:57.169Z,94.31
2018-10-18T22:02:25.818Z,94.34
2018-10-18T22:04:54.522Z,94.48
2018-10-18T22:07:23.352Z,94.23
2018-10-18T22:09:52.032Z,94.33
2018-10-18T22:12:20.747Z,94.89
2018-10-18T22:14:49.654Z,94.52
2018-10-18T22:17:18.733Z,94.33
2018-10-18T22:19:47.379Z,94.44
2018-10-18T22:22:16.088Z,94.17
2018-10-18T22:24:44.907Z,94.95
2018-10-18T22:27:13.842Z,94.57
2018-10-18T22:29:42.555Z,94.07
2018-10-18T22:32:11.296Z,93.99
2018-10-18T22:34:40.020Z,94.52
2018-10-18T22:37:08.776Z,94.16
2018-10-18T22:39:37.453Z,94.04
2018-10-18T22:42:06.631Z,94.81
2018-10-18T22:44:35.390Z,95.15
2018-10-18T22:47:05.125Z,94.97
2018-10-18T22:49:33.790Z,94.92
2018-10-18T22:52:02.447Z,94.38
2018-10-18T22:54:31.120Z,94.40
2018-10-18T22:57:00.936Z,94.46
2018-10-18T22:59:29.725Z,95.46
2018-10-18T23:01:58.475Z,94.97
2018-10-18T23:04:27.226Z,94.87
2018-10-18T23:06:55.938Z,94.76
2018-10-18T23:09:24.620Z,94.63
2018-10-18T23:11:53.408Z,95.39
2018-10-18T23:14:22.118Z,95.44
2018-10-18T23:16:50.872Z,95.05
2018-10-18T23:19:19.504Z,95.58
2018-10-18T23:21:48.164Z,95.24
2018-10-18T23:24:16.895Z,95.59
2018-10-18T23:26:46.598Z,95.65
2018-10-18T23:29:15.486Z,95.26
2018-10-18T23:31:44.040Z,94.41
2018-10-18T23:34:12.656Z,95.02
2018-10-18T23:36:41.353Z,95.55
2018-10-18T23:39:11.065Z,95.90
2018-10-18T23:41:39.664Z,95.59
2018-10-18T23:44:08.356Z,94.82
2018-10-18T23:46:37.151Z,95.39
2018-10-18T23:49:05.921Z,95.32
2018-10-18T23:51:34.654Z,95.38
2018-10-18T23:54:03.389Z,95.17
2018-10-18T23:56:31.990Z,95.69
2018-10-18T23:59:00.696Z,96.00
